sensor_id;sensor_type;location;lat;lon;timestamp;temperature;humidity
23114;DHT22;11726;50.122;8.832;2022-07-25T00:01:11;23.00;99.90
23114;DHT22;11726;50.122;8.832;2022-07-25T00:03:37;22.80;99.90
23114;DHT22;11726;50.122;8.832;2022-07-25T00:06:05;22.90;99.90
23114;DHT22;11726;50.122;8.832;2022-07-25T00:08:38;23.00;99.90
23114;DHT22;11726;50.122;8.832;2022-07-25T00:11:05;22.80;99.90
23114;DHT22;11726;50.122;8.832;2022-07-25T00:13:33;22.70;99.90
23114;DHT22;11726;50.122;8.832;2022-07-25T00:15:59;22.70;99.90
23114;DHT22;11726;50.122;8.832;2022-07-25T00:18:26;22.80;99.90
23114;DHT22;11726;50.122;8.832;2022-07-25T00:20:52;22.90;99.90
23114;DHT22;11726;50.122;8.832;2022-07-25T00:23:19;22.80;99.90
23114;DHT22;11726;50.122;8.832;2022-07-25T00:25:46;22.70;99.90
23114;DHT22;11726;50.122;8.832;2022-07-25T00:28:12;22.80;99.90
23114;DHT22;11726;50.122;8.832;2022-07-25T00:30:39;22.80;99.90
23114;DHT22;11726;50.122;8.832;2022-07-25T00:33:06;22.60;99.90
23114;DHT22;11726;50.122;8.832;2022-07-25T00:35:33;22.60;99.90
23114;DHT22;11726;50.122;8.832;2022-07-25T00:37:59;22.50;99.90
23114;DHT22;11726;50.122;8.832;2022-07-25T00:40:26;22.40;99.90
23114;DHT22;11726;50.122;8.832;2022-07-25T00:42:53;22.50;99.90
23114;DHT22;11726;50.122;8.832;2022-07-25T00:45:20;22.60;99.90
23114;DHT22;11726;50.122;8.832;2022-07-25T00:47:46;22.40;99.90
23114;DHT22;11726;50.122;8.832;2022-07-25T00:50:13;22.40;99.90
23114;DHT22;11726;50.122;8.832;2022-07-25T00:52:39;22.40;99.90
23114;DHT22;11726;50.122;8.832;2022-07-25T00:55:06;22.30;99.90
23114;DHT22;11726;50.122;8.832;2022-07-25T00:57:33;22.20;99.90
23114;DHT22;11726;50.122;8.832;2022-07-25T01:00:00;22.10;99.90
23114;DHT22;11726;50.122;8.832;2022-07-25T01:02:27;22.10;99.90
23114;DHT22;11726;50.122;8.832;2022-07-25T01:04:53;22.10;99.90
23114;DHT22;11726;50.122;8.832;2022-07-25T01:07:20;22.00;99.90
23114;DHT22;11726;50.122;8.832;2022-07-25T01:09:47;22.00;99.90
23114;DHT22;11726;50.122;8.832;2022-07-25T01:12:14;22.10;99.90
23114;DHT22;11726;50.122;8.832;2022-07-25T01:14:41;22.00;99.90
23114;DHT22;11726;50.122;8.832;2022-07-25T01:17:07;22.00;99.90
23114;DHT22;11726;50.122;8.832;2022-07-25T01:19:34;22.00;99.90
23114;DHT22;11726;50.122;8.832;2022-07-25T01:22:01;22.00;99.90
23114;DHT22;11726;50.122;8.832;2022-07-25T01:24:28;21.90;99.90
23114;DHT22;11726;50.122;8.832;2022-07-25T01:26:54;21.80;99.90
23114;DHT22;11726;50.122;8.832;2022-07-25T01:29:21;21.90;99.90
23114;DHT22;11726;50.122;8.832;2022-07-25T01:31:48;22.00;99.90
23114;DHT22;11726;50.122;8.832;2022-07-25T01:34:14;21.90;99.90
23114;DHT22;11726;50.122;8.832;2022-07-25T01:36:41;22.00;99.90
23114;DHT22;11726;50.122;8.832;2022-07-25T01:39:07;22.00;99.90
23114;DHT22;11726;50.122;8.832;2022-07-25T01:41:34;22.00;99.90
23114;DHT22;11726;50.122;8.832;2022-07-25T01:44:01;22.00;99.90
23114;DHT22;11726;50.122;8.832;2022-07-25T01:46:28;21.90;99.90
23114;DHT22;11726;50.122;8.832;2022-07-25T01:48:55;21.60;99.90
23114;DHT22;11726;50.122;8.832;2022-07-25T01:51:22;21.50;99.90
23114;DHT22;11726;50.122;8.832;2022-07-25T01:53:51;21.60;99.90
23114;DHT22;11726;50.122;8.832;2022-07-25T01:56:18;21.70;99.90
23114;DHT22;11726;50.122;8.832;2022-07-25T01:58:48;21.70;99.90
23114;DHT22;11726;50.122;8.832;2022-07-25T02:01:14;21.80;99.90
23114;DHT22;11726;50.122;8.832;2022-07-25T02:03:41;21.70;99.90
23114;DHT22;11726;50.122;8.832;2022-07-25T02:06:07;21.60;99.90
23114;DHT22;11726;50.122;8.832;2022-07-25T02:08:34;21.70;99.90
23114;DHT22;11726;50.122;8.832;2022-07-25T02:11:01;21.60;99.90
23114;DHT22;11726;50.122;8.832;2022-07-25T02:13:28;21.50;99.90
23114;DHT22;11726;50.122;8.832;2022-07-25T02:15:54;21.40;99.90
23114;DHT22;11726;50.122;8.832;2022-07-25T02:18:21;21.60;99.90
23114;DHT22;11726;50.122;8.832;2022-07-25T02:20:48;21.50;99.90
23114;DHT22;11726;50.122;8.832;2022-07-25T02:23:14;21.40;99.90
23114;DHT22;11726;50.122;8.832;2022-07-25T02:25:41;21.50;99.90
23114;DHT22;11726;50.122;8.832;2022-07-25T02:28:07;21.40;99.90
23114;DHT22;11726;50.122;8.832;2022-07-25T02:30:36;21.40;99.90
23114;DHT22;11726;50.122;8.832;2022-07-25T02:33:03;21.50;99.90
23114;DHT22;11726;50.122;8.832;2022-07-25T02:35:29;21.50;99.90
23114;DHT22;11726;50.122;8.832;2022-07-25T02:37:56;21.40;99.90
23114;DHT22;11726;50.122;8.832;2022-07-25T02:40:23;21.30;99.90
23114;DHT22;11726;50.122;8.832;2022-07-25T02:42:50;21.30;99.90
23114;DHT22;11726;50.122;8.832;2022-07-25T02:45:17;21.20;99.90
23114;DHT22;11726;50.122;8.832;2022-07-25T02:47:43;21.40;99.90
23114;DHT22;11726;50.122;8.832;2022-07-25T02:50:10;21.20;99.90
23114;DHT22;11726;50.122;8.832;2022-07-25T02:52:40;21.10;99.90
23114;DHT22;11726;50.122;8.832;2022-07-25T02:55:07;21.20;99.90
23114;DHT22;11726;50.122;8.832;2022-07-25T02:57:35;21.30;99.90
23114;DHT22;11726;50.122;8.832;2022-07-25T03:00:04;21.20;99.90
23114;DHT22;11726;50.122;8.832;2022-07-25T03:02:31;21.20;99.90
23114;DHT22;11726;50.122;8.832;2022-07-25T03:04:57;21.30;99.90
23114;DHT22;11726;50.122;8.832;2022-07-25T03:07:24;21.00;99.90
23114;DHT22;11726;50.122;8.832;2022-07-25T03:09:51;20.90;99.90
23114;DHT22;11726;50.122;8.832;2022-07-25T03:12:17;20.90;99.90
23114;DHT22;11726;50.122;8.832;2022-07-25T03:14:44;20.90;99.90
23114;DHT22;11726;50.122;8.832;2022-07-25T03:17:10;20.80;99.90
23114;DHT22;11726;50.122;8.832;2022-07-25T03:19:37;21.00;99.90
23114;DHT22;11726;50.122;8.832;2022-07-25T03:22:04;21.00;99.90
23114;DHT22;11726;50.122;8.832;2022-07-25T03:24:30;21.00;99.90
23114;DHT22;11726;50.122;8.832;2022-07-25T03:26:57;20.80;99.90
23114;DHT22;11726;50.122;8.832;2022-07-25T03:29:24;21.00;99.90
23114;DHT22;11726;50.122;8.832;2022-07-25T03:31:50;21.00;99.90
23114;DHT22;11726;50.122;8.832;2022-07-25T03:34:17;21.00;99.90
23114;DHT22;11726;50.122;8.832;2022-07-25T03:36:43;21.00;99.90
23114;DHT22;11726;50.122;8.832;2022-07-25T03:39:10;20.90;99.90
23114;DHT22;11726;50.122;8.832;2022-07-25T03:41:37;20.90;99.90
23114;DHT22;11726;50.122;8.832;2022-07-25T03:44:03;20.80;99.90
23114;DHT22;11726;50.122;8.832;2022-07-25T03:46:30;20.70;99.90
23114;DHT22;11726;50.122;8.832;2022-07-25T03:48:57;20.80;99.90
23114;DHT22;11726;50.122;8.832;2022-07-25T03:51:24;20.80;99.90
23114;DHT22;11726;50.122;8.832;2022-07-25T03:53:50;20.80;99.90
23114;DHT22;11726;50.122;8.832;2022-07-25T03:56:41;20.80;99.90
23114;DHT22;11726;50.122;8.832;2022-07-25T03:59:11;20.90;99.90
23114;DHT22;11726;50.122;8.832;2022-07-25T04:01:38;20.90;99.90
23114;DHT22;11726;50.122;8.832;2022-07-25T04:04:05;20.80;99.90
23114;DHT22;11726;50.122;8.832;2022-07-25T04:06:32;20.80;99.90
23114;DHT22;11726;50.122;8.832;2022-07-25T04:08:59;20.90;99.90
23114;DHT22;11726;50.122;8.832;2022-07-25T04:11:26;20.80;99.90
23114;DHT22;11726;50.122;8.832;2022-07-25T04:13:54;20.80;99.90
23114;DHT22;11726;50.122;8.832;2022-07-25T04:16:20;20.80;99.90
23114;DHT22;11726;50.122;8.832;2022-07-25T04:18:49;20.80;99.90
23114;DHT22;11726;50.122;8.832;2022-07-25T04:21:17;20.70;99.90
23114;DHT22;11726;50.122;8.832;2022-07-25T04:23:43;20.70;99.90
23114;DHT22;11726;50.122;8.832;2022-07-25T04:26:10;20.70;99.90
23114;DHT22;11726;50.122;8.832;2022-07-25T04:28:36;20.70;99.90
23114;DHT22;11726;50.122;8.832;2022-07-25T04:31:03;20.70;99.90
23114;DHT22;11726;50.122;8.832;2022-07-25T04:33:30;20.80;99.90
23114;DHT22;11726;50.122;8.832;2022-07-25T04:35:56;20.80;99.90
23114;DHT22;11726;50.122;8.832;2022-07-25T04:38:23;21.00;99.90
23114;DHT22;11726;50.122;8.832;2022-07-25T04:40:50;21.10;99.90
23114;DHT22;11726;50.122;8.832;2022-07-25T04:43:16;21.10;99.90
23114;DHT22;11726;50.122;8.832;2022-07-25T04:45:45;21.20;99.90
23114;DHT22;11726;50.122;8.832;2022-07-25T04:48:11;21.40;99.90
23114;DHT22;11726;50.122;8.832;2022-07-25T04:50:38;21.30;99.90
23114;DHT22;11726;50.122;8.832;2022-07-25T04:53:05;21.10;99.90
23114;DHT22;11726;50.122;8.832;2022-07-25T04:55:31;21.20;99.90
23114;DHT22;11726;50.122;8.832;2022-07-25T04:57:59;21.40;99.90
23114;DHT22;11726;50.122;8.832;2022-07-25T05:00:26;21.50;99.90
23114;DHT22;11726;50.122;8.832;2022-07-25T05:02:53;21.60;99.90
23114;DHT22;11726;50.122;8.832;2022-07-25T05:05:20;21.60;99.90
23114;DHT22;11726;50.122;8.832;2022-07-25T05:07:48;21.60;99.90
23114;DHT22;11726;50.122;8.832;2022-07-25T05:10:15;21.70;99.90
23114;DHT22;11726;50.122;8.832;2022-07-25T05:12:42;21.70;99.90
23114;DHT22;11726;50.122;8.832;2022-07-25T05:15:09;21.80;99.90
23114;DHT22;11726;50.122;8.832;2022-07-25T05:17:36;21.80;99.90
23114;DHT22;11726;50.122;8.832;2022-07-25T05:20:03;21.80;99.90
23114;DHT22;11726;50.122;8.832;2022-07-25T05:22:30;21.90;99.90
23114;DHT22;11726;50.122;8.832;2022-07-25T05:24:56;21.90;99.90
23114;DHT22;11726;50.122;8.832;2022-07-25T05:27:24;21.90;99.90
23114;DHT22;11726;50.122;8.832;2022-07-25T05:29:50;21.90;99.90
23114;DHT22;11726;50.122;8.832;2022-07-25T05:32:17;22.00;99.90
23114;DHT22;11726;50.122;8.832;2022-07-25T05:34:44;22.00;99.90
23114;DHT22;11726;50.122;8.832;2022-07-25T05:37:11;22.10;99.90
23114;DHT22;11726;50.122;8.832;2022-07-25T05:39:37;22.20;99.90
23114;DHT22;11726;50.122;8.832;2022-07-25T05:42:06;22.30;99.90
23114;DHT22;11726;50.122;8.832;2022-07-25T05:44:33;22.40;99.90
23114;DHT22;11726;50.122;8.832;2022-07-25T05:46:59;22.40;99.90
23114;DHT22;11726;50.122;8.832;2022-07-25T05:49:26;22.60;99.90
23114;DHT22;11726;50.122;8.832;2022-07-25T05:51:53;22.70;99.90
23114;DHT22;11726;50.122;8.832;2022-07-25T05:54:20;22.70;99.90
23114;DHT22;11726;50.122;8.832;2022-07-25T05:56:46;22.80;99.90
23114;DHT22;11726;50.122;8.832;2022-07-25T05:59:13;22.80;99.90
23114;DHT22;11726;50.122;8.832;2022-07-25T06:01:39;22.90;99.90
23114;DHT22;11726;50.122;8.832;2022-07-25T06:04:06;23.00;99.90
23114;DHT22;11726;50.122;8.832;2022-07-25T06:06:33;23.10;99.90
23114;DHT22;11726;50.122;8.832;2022-07-25T06:09:00;23.20;99.90
23114;DHT22;11726;50.122;8.832;2022-07-25T06:11:33;23.10;99.90
23114;DHT22;11726;50.122;8.832;2022-07-25T06:14:00;23.30;99.90
23114;DHT22;11726;50.122;8.832;2022-07-25T06:16:27;23.40;99.90
23114;DHT22;11726;50.122;8.832;2022-07-25T06:18:54;23.40;99.90
23114;DHT22;11726;50.122;8.832;2022-07-25T06:21:20;23.40;99.90
23114;DHT22;11726;50.122;8.832;2022-07-25T06:23:47;23.40;99.90
23114;DHT22;11726;50.122;8.832;2022-07-25T06:26:13;23.50;99.90
23114;DHT22;11726;50.122;8.832;2022-07-25T06:28:40;23.60;99.90
23114;DHT22;11726;50.122;8.832;2022-07-25T06:31:07;23.70;99.90
23114;DHT22;11726;50.122;8.832;2022-07-25T06:33:34;23.80;99.90
23114;DHT22;11726;50.122;8.832;2022-07-25T06:36:00;23.90;99.90
23114;DHT22;11726;50.122;8.832;2022-07-25T06:38:27;24.10;99.90
23114;DHT22;11726;50.122;8.832;2022-07-25T06:40:54;24.30;99.90
23114;DHT22;11726;50.122;8.832;2022-07-25T06:43:20;24.30;99.90
23114;DHT22;11726;50.122;8.832;2022-07-25T06:45:47;24.30;99.90
23114;DHT22;11726;50.122;8.832;2022-07-25T06:48:15;24.50;99.90
23114;DHT22;11726;50.122;8.832;2022-07-25T06:50:42;24.60;99.90
23114;DHT22;11726;50.122;8.832;2022-07-25T06:53:09;24.50;99.90
23114;DHT22;11726;50.122;8.832;2022-07-25T06:55:36;24.70;99.90
23114;DHT22;11726;50.122;8.832;2022-07-25T06:58:03;24.80;99.90
23114;DHT22;11726;50.122;8.832;2022-07-25T07:00:29;25.00;99.90
23114;DHT22;11726;50.122;8.832;2022-07-25T07:02:59;25.10;99.90
23114;DHT22;11726;50.122;8.832;2022-07-25T07:05:31;25.20;99.90
23114;DHT22;11726;50.122;8.832;2022-07-25T07:07:58;25.40;99.90
23114;DHT22;11726;50.122;8.832;2022-07-25T07:10:25;25.60;99.90
23114;DHT22;11726;50.122;8.832;2022-07-25T07:13:10;25.80;99.90
23114;DHT22;11726;50.122;8.832;2022-07-25T07:15:42;25.90;99.90
23114;DHT22;11726;50.122;8.832;2022-07-25T07:18:09;26.10;99.90
23114;DHT22;11726;50.122;8.832;2022-07-25T07:20:35;26.20;99.90
23114;DHT22;11726;50.122;8.832;2022-07-25T07:23:02;26.30;99.40
23114;DHT22;11726;50.122;8.832;2022-07-25T07:25:29;26.30;98.70
23114;DHT22;11726;50.122;8.832;2022-07-25T07:27:56;26.40;99.50
23114;DHT22;11726;50.122;8.832;2022-07-25T07:30:22;26.60;98.90
23114;DHT22;11726;50.122;8.832;2022-07-25T07:33:03;26.70;98.30
23114;DHT22;11726;50.122;8.832;2022-07-25T07:35:29;26.90;98.00
23114;DHT22;11726;50.122;8.832;2022-07-25T07:38:01;26.90;97.70
23114;DHT22;11726;50.122;8.832;2022-07-25T07:40:28;26.80;98.00
23114;DHT22;11726;50.122;8.832;2022-07-25T07:42:54;27.00;97.80
23114;DHT22;11726;50.122;8.832;2022-07-25T07:45:23;27.20;97.40
23114;DHT22;11726;50.122;8.832;2022-07-25T07:47:52;27.20;96.70
23114;DHT22;11726;50.122;8.832;2022-07-25T07:50:23;27.30;97.40
23114;DHT22;11726;50.122;8.832;2022-07-25T07:52:51;27.50;96.70
23114;DHT22;11726;50.122;8.832;2022-07-25T07:55:18;27.70;96.40
23114;DHT22;11726;50.122;8.832;2022-07-25T07:58:04;27.70;95.80
23114;DHT22;11726;50.122;8.832;2022-07-25T08:00:30;27.80;96.10
23114;DHT22;11726;50.122;8.832;2022-07-25T08:02:58;28.00;95.40
23114;DHT22;11726;50.122;8.832;2022-07-25T08:05:30;28.20;95.30
23114;DHT22;11726;50.122;8.832;2022-07-25T08:07:58;28.20;94.70
23114;DHT22;11726;50.122;8.832;2022-07-25T08:10:27;28.30;93.90
23114;DHT22;11726;50.122;8.832;2022-07-25T08:12:54;28.40;94.20
23114;DHT22;11726;50.122;8.832;2022-07-25T08:15:21;28.40;93.50
23114;DHT22;11726;50.122;8.832;2022-07-25T08:17:49;28.50;93.20
23114;DHT22;11726;50.122;8.832;2022-07-25T08:20:20;28.70;92.60
23114;DHT22;11726;50.122;8.832;2022-07-25T08:23:06;28.80;92.90
23114;DHT22;11726;50.122;8.832;2022-07-25T08:25:34;29.00;92.40
23114;DHT22;11726;50.122;8.832;2022-07-25T08:28:00;29.20;91.10
23114;DHT22;11726;50.122;8.832;2022-07-25T08:30:27;29.20;90.70
23114;DHT22;11726;50.122;8.832;2022-07-25T08:32:56;29.30;90.80
23114;DHT22;11726;50.122;8.832;2022-07-25T08:35:26;29.50;90.80
23114;DHT22;11726;50.122;8.832;2022-07-25T08:37:54;29.50;90.00
23114;DHT22;11726;50.122;8.832;2022-07-25T08:40:23;29.60;89.60
23114;DHT22;11726;50.122;8.832;2022-07-25T08:42:50;29.60;89.90
23114;DHT22;11726;50.122;8.832;2022-07-25T08:45:18;29.70;89.20
23114;DHT22;11726;50.122;8.832;2022-07-25T08:47:47;29.80;88.60
23114;DHT22;11726;50.122;8.832;2022-07-25T08:50:17;29.70;88.30
23114;DHT22;11726;50.122;8.832;2022-07-25T08:52:45;29.60;87.70
23114;DHT22;11726;50.122;8.832;2022-07-25T08:55:15;29.60;88.20
23114;DHT22;11726;50.122;8.832;2022-07-25T08:57:42;29.90;87.90
23114;DHT22;11726;50.122;8.832;2022-07-25T09:00:11;29.90;86.00
23114;DHT22;11726;50.122;8.832;2022-07-25T09:02:38;30.00;85.80
23114;DHT22;11726;50.122;8.832;2022-07-25T09:05:05;30.10;85.60
23114;DHT22;11726;50.122;8.832;2022-07-25T09:07:37;30.20;85.20
23114;DHT22;11726;50.122;8.832;2022-07-25T09:12:58;30.50;83.30
23114;DHT22;11726;50.122;8.832;2022-07-25T09:15:31;30.50;84.20
23114;DHT22;11726;50.122;8.832;2022-07-25T09:18:01;30.70;81.90
23114;DHT22;11726;50.122;8.832;2022-07-25T09:20:51;30.80;80.10
23114;DHT22;11726;50.122;8.832;2022-07-25T09:23:28;30.90;79.40
23114;DHT22;11726;50.122;8.832;2022-07-25T09:26:04;31.10;79.00
23114;DHT22;11726;50.122;8.832;2022-07-25T09:28:31;31.20;77.50
23114;DHT22;11726;50.122;8.832;2022-07-25T09:30:59;31.20;77.80
23114;DHT22;11726;50.122;8.832;2022-07-25T09:33:28;31.30;78.30
23114;DHT22;11726;50.122;8.832;2022-07-25T09:35:55;31.50;77.90
23114;DHT22;11726;50.122;8.832;2022-07-25T09:38:22;31.70;77.00
23114;DHT22;11726;50.122;8.832;2022-07-25T09:40:58;31.80;75.00
23114;DHT22;11726;50.122;8.832;2022-07-25T09:43:39;31.70;74.60
23114;DHT22;11726;50.122;8.832;2022-07-25T09:46:07;31.80;74.00
23114;DHT22;11726;50.122;8.832;2022-07-25T09:48:35;32.00;74.10
23114;DHT22;11726;50.122;8.832;2022-07-25T09:51:03;32.10;72.10
23114;DHT22;11726;50.122;8.832;2022-07-25T09:53:29;32.10;71.90
23114;DHT22;11726;50.122;8.832;2022-07-25T09:55:56;32.20;72.60
23114;DHT22;11726;50.122;8.832;2022-07-25T09:58:23;32.20;71.90
23114;DHT22;11726;50.122;8.832;2022-07-25T10:00:55;32.40;72.40
23114;DHT22;11726;50.122;8.832;2022-07-25T10:06:38;32.70;68.80
23114;DHT22;11726;50.122;8.832;2022-07-25T10:09:12;32.70;68.30
23114;DHT22;11726;50.122;8.832;2022-07-25T10:11:40;32.70;67.60
23114;DHT22;11726;50.122;8.832;2022-07-25T10:14:10;32.90;67.70
23114;DHT22;11726;50.122;8.832;2022-07-25T10:16:47;32.70;66.20
23114;DHT22;11726;50.122;8.832;2022-07-25T10:19:14;32.50;67.90
23114;DHT22;11726;50.122;8.832;2022-07-25T10:21:40;32.40;68.00
23114;DHT22;11726;50.122;8.832;2022-07-25T10:24:08;32.30;68.20
23114;DHT22;11726;50.122;8.832;2022-07-25T10:26:37;32.50;68.30
23114;DHT22;11726;50.122;8.832;2022-07-25T10:29:11;32.60;67.10
23114;DHT22;11726;50.122;8.832;2022-07-25T10:31:43;32.70;66.30
23114;DHT22;11726;50.122;8.832;2022-07-25T10:34:29;32.80;65.70
23114;DHT22;11726;50.122;8.832;2022-07-25T10:37:09;32.70;65.00
23114;DHT22;11726;50.122;8.832;2022-07-25T10:39:37;32.90;65.40
23114;DHT22;11726;50.122;8.832;2022-07-25T10:42:04;32.90;65.30
23114;DHT22;11726;50.122;8.832;2022-07-25T10:44:46;33.00;66.90
23114;DHT22;11726;50.122;8.832;2022-07-25T10:47:15;33.00;64.50
23114;DHT22;11726;50.122;8.832;2022-07-25T10:49:44;33.10;64.00
23114;DHT22;11726;50.122;8.832;2022-07-25T10:52:40;33.20;63.50
23114;DHT22;11726;50.122;8.832;2022-07-25T10:55:07;33.30;63.80
23114;DHT22;11726;50.122;8.832;2022-07-25T10:57:34;33.20;64.10
23114;DHT22;11726;50.122;8.832;2022-07-25T11:00:20;33.10;64.00
23114;DHT22;11726;50.122;8.832;2022-07-25T11:02:48;33.60;62.70
23114;DHT22;11726;50.122;8.832;2022-07-25T11:05:15;33.80;60.20
23114;DHT22;11726;50.122;8.832;2022-07-25T11:07:52;34.00;59.70
23114;DHT22;11726;50.122;8.832;2022-07-25T11:10:39;34.10;59.60
23114;DHT22;11726;50.122;8.832;2022-07-25T11:13:13;34.10;58.80
23114;DHT22;11726;50.122;8.832;2022-07-25T11:15:40;34.10;57.80
23114;DHT22;11726;50.122;8.832;2022-07-25T11:18:07;33.90;57.60
23114;DHT22;11726;50.122;8.832;2022-07-25T11:20:33;33.60;57.80
23114;DHT22;11726;50.122;8.832;2022-07-25T11:23:00;33.70;58.50
23114;DHT22;11726;50.122;8.832;2022-07-25T11:25:27;34.20;58.20
23114;DHT22;11726;50.122;8.832;2022-07-25T11:27:58;34.20;57.30
23114;DHT22;11726;50.122;8.832;2022-07-25T11:30:26;33.90;57.60
23114;DHT22;11726;50.122;8.832;2022-07-25T11:32:57;34.00;57.90
23114;DHT22;11726;50.122;8.832;2022-07-25T11:35:30;34.30;58.10
23114;DHT22;11726;50.122;8.832;2022-07-25T11:37:59;34.40;56.50
23114;DHT22;11726;50.122;8.832;2022-07-25T11:40:27;34.70;54.60
23114;DHT22;11726;50.122;8.832;2022-07-25T11:42:56;34.70;54.60
23114;DHT22;11726;50.122;8.832;2022-07-25T11:45:31;34.50;54.20
23114;DHT22;11726;50.122;8.832;2022-07-25T11:48:10;34.50;55.20
23114;DHT22;11726;50.122;8.832;2022-07-25T11:50:41;34.30;55.30
23114;DHT22;11726;50.122;8.832;2022-07-25T11:53:10;34.40;55.90
23114;DHT22;11726;50.122;8.832;2022-07-25T11:55:40;34.10;56.20
23114;DHT22;11726;50.122;8.832;2022-07-25T11:58:10;34.40;56.00
23114;DHT22;11726;50.122;8.832;2022-07-25T12:00:40;34.50;56.00
23114;DHT22;11726;50.122;8.832;2022-07-25T12:03:11;34.60;55.50
23114;DHT22;11726;50.122;8.832;2022-07-25T12:05:45;34.60;55.00
23114;DHT22;11726;50.122;8.832;2022-07-25T12:08:20;34.20;55.80
23114;DHT22;11726;50.122;8.832;2022-07-25T12:10:48;34.10;56.00
23114;DHT22;11726;50.122;8.832;2022-07-25T12:13:24;33.80;55.90
23114;DHT22;11726;50.122;8.832;2022-07-25T12:15:52;34.00;56.10
23114;DHT22;11726;50.122;8.832;2022-07-25T12:18:18;33.80;56.70
23114;DHT22;11726;50.122;8.832;2022-07-25T12:20:45;33.70;57.20
23114;DHT22;11726;50.122;8.832;2022-07-25T12:23:12;33.60;57.60
23114;DHT22;11726;50.122;8.832;2022-07-25T12:25:41;33.60;57.30
23114;DHT22;11726;50.122;8.832;2022-07-25T12:28:08;33.90;57.50
23114;DHT22;11726;50.122;8.832;2022-07-25T12:30:37;34.50;57.00
23114;DHT22;11726;50.122;8.832;2022-07-25T12:33:04;35.10;56.30
23114;DHT22;11726;50.122;8.832;2022-07-25T12:35:31;35.50;55.20
23114;DHT22;11726;50.122;8.832;2022-07-25T12:37:58;35.30;55.60
23114;DHT22;11726;50.122;8.832;2022-07-25T12:40:25;35.50;54.80
23114;DHT22;11726;50.122;8.832;2022-07-25T12:42:52;35.60;53.50
23114;DHT22;11726;50.122;8.832;2022-07-25T12:45:18;35.60;51.40
23114;DHT22;11726;50.122;8.832;2022-07-25T12:47:46;35.70;49.50
23114;DHT22;11726;50.122;8.832;2022-07-25T12:50:14;35.90;49.50
23114;DHT22;11726;50.122;8.832;2022-07-25T12:52:42;36.20;49.70
23114;DHT22;11726;50.122;8.832;2022-07-25T12:55:11;36.00;48.60
23114;DHT22;11726;50.122;8.832;2022-07-25T12:57:38;36.10;46.70
23114;DHT22;11726;50.122;8.832;2022-07-25T13:00:08;36.20;46.40
23114;DHT22;11726;50.122;8.832;2022-07-25T13:02:36;36.30;46.60
23114;DHT22;11726;50.122;8.832;2022-07-25T13:05:03;35.80;46.80
23114;DHT22;11726;50.122;8.832;2022-07-25T13:07:32;35.60;47.80
23114;DHT22;11726;50.122;8.832;2022-07-25T13:09:59;35.10;48.30
23114;DHT22;11726;50.122;8.832;2022-07-25T13:12:26;34.70;49.00
23114;DHT22;11726;50.122;8.832;2022-07-25T13:14:53;34.50;49.70
23114;DHT22;11726;50.122;8.832;2022-07-25T13:17:19;34.30;50.40
23114;DHT22;11726;50.122;8.832;2022-07-25T13:19:52;34.20;50.90
23114;DHT22;11726;50.122;8.832;2022-07-25T13:22:19;34.00;50.80
23114;DHT22;11726;50.122;8.832;2022-07-25T13:24:46;34.00;51.20
23114;DHT22;11726;50.122;8.832;2022-07-25T13:27:12;34.40;51.60
23114;DHT22;11726;50.122;8.832;2022-07-25T13:29:39;34.50;53.20
23114;DHT22;11726;50.122;8.832;2022-07-25T13:32:09;34.50;51.40
23114;DHT22;11726;50.122;8.832;2022-07-25T13:34:35;34.10;51.40
23114;DHT22;11726;50.122;8.832;2022-07-25T13:37:02;34.30;51.30
23114;DHT22;11726;50.122;8.832;2022-07-25T13:39:30;34.60;51.10
23114;DHT22;11726;50.122;8.832;2022-07-25T13:41:57;34.50;50.80
23114;DHT22;11726;50.122;8.832;2022-07-25T13:44:23;34.20;51.20
23114;DHT22;11726;50.122;8.832;2022-07-25T13:46:50;34.00;51.80
23114;DHT22;11726;50.122;8.832;2022-07-25T13:49:17;34.00;52.30
23114;DHT22;11726;50.122;8.832;2022-07-25T13:51:44;34.00;52.30
23114;DHT22;11726;50.122;8.832;2022-07-25T13:54:11;33.90;52.30
23114;DHT22;11726;50.122;8.832;2022-07-25T13:56:38;33.70;55.50
23114;DHT22;11726;50.122;8.832;2022-07-25T13:59:05;33.60;54.80
23114;DHT22;11726;50.122;8.832;2022-07-25T14:01:33;33.70;55.00
23114;DHT22;11726;50.122;8.832;2022-07-25T14:04:00;34.00;54.90
23114;DHT22;11726;50.122;8.832;2022-07-25T14:06:26;33.90;54.60
23114;DHT22;11726;50.122;8.832;2022-07-25T14:08:53;34.00;54.20
23114;DHT22;11726;50.122;8.832;2022-07-25T14:11:20;34.00;54.40
23114;DHT22;11726;50.122;8.832;2022-07-25T14:13:46;33.70;54.70
23114;DHT22;11726;50.122;8.832;2022-07-25T14:16:13;33.60;54.70
23114;DHT22;11726;50.122;8.832;2022-07-25T14:18:42;33.50;54.50
23114;DHT22;11726;50.122;8.832;2022-07-25T14:21:09;33.30;55.10
23114;DHT22;11726;50.122;8.832;2022-07-25T14:23:35;33.10;54.80
23114;DHT22;11726;50.122;8.832;2022-07-25T14:26:02;33.00;54.60
23114;DHT22;11726;50.122;8.832;2022-07-25T14:28:29;33.00;54.30
23114;DHT22;11726;50.122;8.832;2022-07-25T14:30:55;32.90;54.50
23114;DHT22;11726;50.122;8.832;2022-07-25T14:33:22;32.90;54.80
23114;DHT22;11726;50.122;8.832;2022-07-25T14:35:49;33.00;54.90
23114;DHT22;11726;50.122;8.832;2022-07-25T14:38:15;33.30;55.20
23114;DHT22;11726;50.122;8.832;2022-07-25T14:40:42;33.40;54.40
23114;DHT22;11726;50.122;8.832;2022-07-25T14:43:09;33.40;53.90
23114;DHT22;11726;50.122;8.832;2022-07-25T14:45:35;33.70;54.00
23114;DHT22;11726;50.122;8.832;2022-07-25T14:48:04;34.40;52.60
23114;DHT22;11726;50.122;8.832;2022-07-25T14:50:31;35.20;51.90
23114;DHT22;11726;50.122;8.832;2022-07-25T14:52:58;35.40;50.90
23114;DHT22;11726;50.122;8.832;2022-07-25T14:55:25;35.60;51.40
23114;DHT22;11726;50.122;8.832;2022-07-25T14:57:52;35.70;51.20
23114;DHT22;11726;50.122;8.832;2022-07-25T15:00:18;35.60;51.80
23114;DHT22;11726;50.122;8.832;2022-07-25T15:02:45;35.30;51.80
23114;DHT22;11726;50.122;8.832;2022-07-25T15:05:12;35.00;52.70
23114;DHT22;11726;50.122;8.832;2022-07-25T15:07:39;35.40;52.20
23114;DHT22;11726;50.122;8.832;2022-07-25T15:10:05;35.20;52.80
23114;DHT22;11726;50.122;8.832;2022-07-25T15:12:33;35.40;52.70
23114;DHT22;11726;50.122;8.832;2022-07-25T15:15:00;35.60;52.00
23114;DHT22;11726;50.122;8.832;2022-07-25T15:17:27;35.00;53.00
23114;DHT22;11726;50.122;8.832;2022-07-25T15:19:53;34.70;54.30
23114;DHT22;11726;50.122;8.832;2022-07-25T15:22:20;35.00;54.60
23114;DHT22;11726;50.122;8.832;2022-07-25T15:24:47;34.90;53.90
23114;DHT22;11726;50.122;8.832;2022-07-25T15:27:33;34.70;54.30
23114;DHT22;11726;50.122;8.832;2022-07-25T15:30:00;34.50;56.10
23114;DHT22;11726;50.122;8.832;2022-07-25T15:32:27;34.90;55.60
23114;DHT22;11726;50.122;8.832;2022-07-25T15:34:53;34.90;54.70
23114;DHT22;11726;50.122;8.832;2022-07-25T15:37:20;35.80;54.50
23114;DHT22;11726;50.122;8.832;2022-07-25T15:39:47;36.70;53.70
23114;DHT22;11726;50.122;8.832;2022-07-25T15:42:14;36.70;51.10